sensor_id;sensor_type;location;lat;lon;timestamp;P1;durP1;ratioP1;P2;durP2;ratioP2
5787;SDS011;2920;48.158;12.254;2022-07-03T00:01:49;2.20;;;1.70;;
5787;SDS011;2920;48.158;12.254;2022-07-03T00:04:14;3.85;;;2.60;;
5787;SDS011;2920;48.158;12.254;2022-07-03T00:06:40;4.03;;;2.40;;
5787;SDS011;2920;48.158;12.254;2022-07-03T00:09:06;2.92;;;2.35;;
5787;SDS011;2920;48.158;12.254;2022-07-03T00:11:31;4.28;;;2.10;;
5787;SDS011;2920;48.158;12.254;2022-07-03T00:13:57;2.08;;;1.88;;
5787;SDS011;2920;48.158;12.254;2022-07-03T00:16:22;2.50;;;1.95;;
5787;SDS011;2920;48.158;12.254;2022-07-03T00:18:48;3.53;;;2.40;;
5787;SDS011;2920;48.158;12.254;2022-07-03T00:21:17;4.35;;;2.25;;
5787;SDS011;2920;48.158;12.254;2022-07-03T00:23:46;2.63;;;2.10;;
5787;SDS011;2920;48.158;12.254;2022-07-03T00:26:18;2.85;;;2.22;;
5787;SDS011;2920;48.158;12.254;2022-07-03T00:28:44;2.20;;;1.90;;
5787;SDS011;2920;48.158;12.254;2022-07-03T00:31:10;2.53;;;1.92;;
5787;SDS011;2920;48.158;12.254;2022-07-03T00:33:36;4.72;;;2.47;;
5787;SDS011;2920;48.158;12.254;2022-07-03T00:36:01;2.40;;;2.00;;
5787;SDS011;2920;48.158;12.254;2022-07-03T00:38:27;2.65;;;2.00;;
5787;SDS011;2920;48.158;12.254;2022-07-03T00:40:53;3.30;;;2.28;;
5787;SDS011;2920;48.158;12.254;2022-07-03T00:43:18;3.15;;;2.47;;
5787;SDS011;2920;48.158;12.254;2022-07-03T00:45:48;4.57;;;2.50;;
5787;SDS011;2920;48.158;12.254;2022-07-03T00:48:15;3.42;;;2.47;;
5787;SDS011;2920;48.158;12.254;2022-07-03T00:50:45;2.83;;;2.00;;
5787;SDS011;2920;48.158;12.254;2022-07-03T00:53:12;2.78;;;2.20;;
5787;SDS011;2920;48.158;12.254;2022-07-03T00:55:39;3.75;;;2.63;;
5787;SDS011;2920;48.158;12.254;2022-07-03T00:58:07;3.28;;;2.20;;
5787;SDS011;2920;48.158;12.254;2022-07-03T01:00:32;3.80;;;2.00;;
5787;SDS011;2920;48.158;12.254;2022-07-03T01:03:05;4.68;;;2.38;;
5787;SDS011;2920;48.158;12.254;2022-07-03T01:05:38;2.92;;;2.15;;
5787;SDS011;2920;48.158;12.254;2022-07-03T01:10:42;3.97;;;2.60;;
5787;SDS011;2920;48.158;12.254;2022-07-03T01:13:25;3.40;;;2.13;;
5787;SDS011;2920;48.158;12.254;2022-07-03T01:16:09;2.47;;;2.10;;
5787;SDS011;2920;48.158;12.254;2022-07-03T01:30:13;3.92;;;2.35;;
5787;SDS011;2920;48.158;12.254;2022-07-03T01:32:41;5.40;;;2.42;;
5787;SDS011;2920;48.158;12.254;2022-07-03T01:35:08;3.57;;;2.60;;
5787;SDS011;2920;48.158;12.254;2022-07-03T01:37:38;4.93;;;2.67;;
5787;SDS011;2920;48.158;12.254;2022-07-03T01:40:04;3.97;;;2.75;;
5787;SDS011;2920;48.158;12.254;2022-07-03T01:42:33;2.90;;;2.58;;
5787;SDS011;2920;48.158;12.254;2022-07-03T01:45:02;2.97;;;2.47;;
5787;SDS011;2920;48.158;12.254;2022-07-03T01:47:28;3.97;;;2.70;;
5787;SDS011;2920;48.158;12.254;2022-07-03T01:49:53;3.15;;;2.42;;
5787;SDS011;2920;48.158;12.254;2022-07-03T01:52:20;3.08;;;2.33;;
5787;SDS011;2920;48.158;12.254;2022-07-03T01:54:46;3.90;;;2.38;;
5787;SDS011;2920;48.158;12.254;2022-07-03T01:57:12;5.35;;;2.83;;
5787;SDS011;2920;48.158;12.254;2022-07-03T01:59:38;3.85;;;2.55;;
5787;SDS011;2920;48.158;12.254;2022-07-03T02:04:59;3.40;;;2.72;;
5787;SDS011;2920;48.158;12.254;2022-07-03T02:10:11;2.53;;;2.10;;
5787;SDS011;2920;48.158;12.254;2022-07-03T02:12:54;4.22;;;2.45;;
5787;SDS011;2920;48.158;12.254;2022-07-03T02:15:28;3.10;;;2.33;;
5787;SDS011;2920;48.158;12.254;2022-07-03T02:17:55;2.97;;;2.25;;
5787;SDS011;2920;48.158;12.254;2022-07-03T02:20:22;4.55;;;2.65;;
5787;SDS011;2920;48.158;12.254;2022-07-03T02:22:57;5.03;;;2.60;;
5787;SDS011;2920;48.158;12.254;2022-07-03T02:25:26;5.93;;;2.25;;
5787;SDS011;2920;48.158;12.254;2022-07-03T02:30:29;3.58;;;2.53;;
5787;SDS011;2920;48.158;12.254;2022-07-03T02:32:57;2.95;;;2.28;;
5787;SDS011;2920;48.158;12.254;2022-07-03T02:35:30;3.35;;;2.40;;
5787;SDS011;2920;48.158;12.254;2022-07-03T02:46:34;4.15;;;2.60;;
5787;SDS011;2920;48.158;12.254;2022-07-03T02:49:38;4.63;;;2.75;;
5787;SDS011;2920;48.158;12.254;2022-07-03T02:54:57;8.23;;;2.85;;
5787;SDS011;2920;48.158;12.254;2022-07-03T02:57:26;3.58;;;2.55;;
5787;SDS011;2920;48.158;12.254;2022-07-03T03:00:02;4.38;;;2.80;;
5787;SDS011;2920;48.158;12.254;2022-07-03T03:05:02;3.30;;;2.63;;
5787;SDS011;2920;48.158;12.254;2022-07-03T03:07:39;3.80;;;2.53;;
5787;SDS011;2920;48.158;12.254;2022-07-03T03:10:07;3.45;;;2.33;;
5787;SDS011;2920;48.158;12.254;2022-07-03T03:12:35;2.83;;;2.10;;
5787;SDS011;2920;48.158;12.254;2022-07-03T03:15:02;4.13;;;2.83;;
5787;SDS011;2920;48.158;12.254;2022-07-03T03:17:42;3.72;;;2.63;;
5787;SDS011;2920;48.158;12.254;2022-07-03T03:22:52;2.47;;;2.08;;
5787;SDS011;2920;48.158;12.254;2022-07-03T03:25:25;5.05;;;2.85;;
5787;SDS011;2920;48.158;12.254;2022-07-03T03:27:50;4.38;;;2.70;;
5787;SDS011;2920;48.158;12.254;2022-07-03T03:30:16;4.80;;;3.20;;
5787;SDS011;2920;48.158;12.254;2022-07-03T03:32:41;3.63;;;2.47;;
5787;SDS011;2920;48.158;12.254;2022-07-03T03:35:07;3.35;;;2.55;;
5787;SDS011;2920;48.158;12.254;2022-07-03T03:37:32;2.85;;;2.40;;
5787;SDS011;2920;48.158;12.254;2022-07-03T03:39:58;5.30;;;2.72;;
5787;SDS011;2920;48.158;12.254;2022-07-03T03:42:23;7.97;;;2.83;;
5787;SDS011;2920;48.158;12.254;2022-07-03T03:44:48;3.10;;;2.42;;
5787;SDS011;2920;48.158;12.254;2022-07-03T03:47:14;3.90;;;2.33;;
5787;SDS011;2920;48.158;12.254;2022-07-03T03:49:39;3.30;;;2.58;;
5787;SDS011;2920;48.158;12.254;2022-07-03T03:52:04;4.40;;;2.70;;
5787;SDS011;2920;48.158;12.254;2022-07-03T03:54:31;4.18;;;2.47;;
5787;SDS011;2920;48.158;12.254;2022-07-03T03:56:56;2.95;;;2.15;;
5787;SDS011;2920;48.158;12.254;2022-07-03T03:59:21;2.97;;;2.17;;
5787;SDS011;2920;48.158;12.254;2022-07-03T04:01:47;2.95;;;2.15;;
5787;SDS011;2920;48.158;12.254;2022-07-03T04:04:13;3.05;;;2.15;;
5787;SDS011;2920;48.158;12.254;2022-07-03T04:06:42;2.90;;;2.28;;
5787;SDS011;2920;48.158;12.254;2022-07-03T04:09:08;4.40;;;2.42;;
5787;SDS011;2920;48.158;12.254;2022-07-03T04:11:33;2.72;;;2.08;;
5787;SDS011;2920;48.158;12.254;2022-07-03T04:13:58;5.03;;;2.75;;
5787;SDS011;2920;48.158;12.254;2022-07-03T04:16:24;3.10;;;2.30;;
5787;SDS011;2920;48.158;12.254;2022-07-03T04:18:49;3.45;;;2.40;;
5787;SDS011;2920;48.158;12.254;2022-07-03T04:21:14;3.22;;;2.53;;
5787;SDS011;2920;48.158;12.254;2022-07-03T04:23:40;3.83;;;2.60;;
5787;SDS011;2920;48.158;12.254;2022-07-03T04:26:05;3.40;;;2.60;;
5787;SDS011;2920;48.158;12.254;2022-07-03T04:28:31;3.15;;;2.58;;
5787;SDS011;2920;48.158;12.254;2022-07-03T04:30:57;3.40;;;2.30;;
5787;SDS011;2920;48.158;12.254;2022-07-03T04:33:22;3.42;;;2.40;;
5787;SDS011;2920;48.158;12.254;2022-07-03T04:35:48;3.42;;;2.13;;
5787;SDS011;2920;48.158;12.254;2022-07-03T04:38:13;3.25;;;2.10;;
5787;SDS011;2920;48.158;12.254;2022-07-03T04:40:38;3.38;;;2.30;;
5787;SDS011;2920;48.158;12.254;2022-07-03T04:43:04;4.25;;;2.08;;
5787;SDS011;2920;48.158;12.254;2022-07-03T04:45:29;3.00;;;2.17;;
5787;SDS011;2920;48.158;12.254;2022-07-03T04:47:54;2.85;;;2.25;;
5787;SDS011;2920;48.158;12.254;2022-07-03T04:50:20;4.30;;;2.42;;
5787;SDS011;2920;48.158;12.254;2022-07-03T04:52:45;5.30;;;2.30;;
5787;SDS011;2920;48.158;12.254;2022-07-03T04:55:10;2.30;;;2.10;;
5787;SDS011;2920;48.158;12.254;2022-07-03T04:57:37;2.85;;;2.15;;
5787;SDS011;2920;48.158;12.254;2022-07-03T05:00:03;3.05;;;1.90;;
5787;SDS011;2920;48.158;12.254;2022-07-03T05:02:29;4.47;;;2.20;;
5787;SDS011;2920;48.158;12.254;2022-07-03T05:04:54;4.18;;;2.20;;
5787;SDS011;2920;48.158;12.254;2022-07-03T05:07:19;4.05;;;2.30;;
5787;SDS011;2920;48.158;12.254;2022-07-03T05:09:45;2.67;;;2.13;;
5787;SDS011;2920;48.158;12.254;2022-07-03T05:12:10;3.05;;;2.30;;
5787;SDS011;2920;48.158;12.254;2022-07-03T05:14:35;4.38;;;3.05;;
5787;SDS011;2920;48.158;12.254;2022-07-03T05:17:01;4.07;;;3.00;;
5787;SDS011;2920;48.158;12.254;2022-07-03T05:19:26;5.18;;;3.40;;
5787;SDS011;2920;48.158;12.254;2022-07-03T05:21:51;5.18;;;2.80;;
5787;SDS011;2920;48.158;12.254;2022-07-03T05:24:17;2.92;;;2.22;;
5787;SDS011;2920;48.158;12.254;2022-07-03T05:26:42;3.55;;;2.83;;
5787;SDS011;2920;48.158;12.254;2022-07-03T05:29:07;2.65;;;2.20;;
5787;SDS011;2920;48.158;12.254;2022-07-03T05:31:33;3.72;;;2.72;;
5787;SDS011;2920;48.158;12.254;2022-07-03T05:33:58;4.93;;;2.55;;
5787;SDS011;2920;48.158;12.254;2022-07-03T05:36:23;4.45;;;2.97;;
5787;SDS011;2920;48.158;12.254;2022-07-03T05:38:49;3.95;;;2.45;;
5787;SDS011;2920;48.158;12.254;2022-07-03T05:41:34;4.78;;;3.10;;
5787;SDS011;2920;48.158;12.254;2022-07-03T05:43:59;5.22;;;3.47;;
5787;SDS011;2920;48.158;12.254;2022-07-03T05:46:24;5.30;;;2.88;;
5787;SDS011;2920;48.158;12.254;2022-07-03T05:48:50;3.95;;;2.60;;
5787;SDS011;2920;48.158;12.254;2022-07-03T05:51:15;4.13;;;2.33;;
5787;SDS011;2920;48.158;12.254;2022-07-03T05:53:40;3.80;;;2.40;;
5787;SDS011;2920;48.158;12.254;2022-07-03T05:56:06;3.42;;;2.65;;
5787;SDS011;2920;48.158;12.254;2022-07-03T05:58:31;3.35;;;2.70;;
5787;SDS011;2920;48.158;12.254;2022-07-03T06:00:56;5.22;;;2.90;;
5787;SDS011;2920;48.158;12.254;2022-07-03T06:03:22;5.30;;;2.47;;
5787;SDS011;2920;48.158;12.254;2022-07-03T06:05:47;3.53;;;2.33;;
5787;SDS011;2920;48.158;12.254;2022-07-03T06:08:12;4.45;;;2.85;;
5787;SDS011;2920;48.158;12.254;2022-07-03T06:10:38;4.45;;;3.22;;
5787;SDS011;2920;48.158;12.254;2022-07-03T06:13:03;3.70;;;2.40;;
5787;SDS011;2920;48.158;12.254;2022-07-03T06:15:28;3.22;;;2.70;;
5787;SDS011;2920;48.158;12.254;2022-07-03T06:17:54;3.80;;;2.75;;
5787;SDS011;2920;48.158;12.254;2022-07-03T06:20:19;4.00;;;2.53;;
5787;SDS011;2920;48.158;12.254;2022-07-03T06:22:44;3.90;;;2.80;;
5787;SDS011;2920;48.158;12.254;2022-07-03T06:25:10;4.15;;;2.60;;
5787;SDS011;2920;48.158;12.254;2022-07-03T06:27:36;4.25;;;3.13;;
5787;SDS011;2920;48.158;12.254;2022-07-03T06:30:01;6.35;;;2.80;;
5787;SDS011;2920;48.158;12.254;2022-07-03T06:32:27;3.97;;;2.50;;
5787;SDS011;2920;48.158;12.254;2022-07-03T06:34:52;3.80;;;2.75;;
5787;SDS011;2920;48.158;12.254;2022-07-03T06:37:18;4.78;;;2.80;;
5787;SDS011;2920;48.158;12.254;2022-07-03T06:39:44;2.72;;;2.47;;
5787;SDS011;2920;48.158;12.254;2022-07-03T06:42:09;4.28;;;2.05;;
5787;SDS011;2920;48.158;12.254;2022-07-03T06:44:35;3.88;;;2.50;;
5787;SDS011;2920;48.158;12.254;2022-07-03T06:47:00;3.88;;;2.10;;
5787;SDS011;2920;48.158;12.254;2022-07-03T06:49:28;2.55;;;2.10;;
5787;SDS011;2920;48.158;12.254;2022-07-03T06:51:55;5.35;;;2.40;;
5787;SDS011;2920;48.158;12.254;2022-07-03T06:54:20;3.17;;;2.30;;
5787;SDS011;2920;48.158;12.254;2022-07-03T06:56:45;2.70;;;2.10;;
5787;SDS011;2920;48.158;12.254;2022-07-03T06:59:11;2.50;;;2.20;;
5787;SDS011;2920;48.158;12.254;2022-07-03T07:01:36;5.38;;;2.05;;
5787;SDS011;2920;48.158;12.254;2022-07-03T07:04:01;5.53;;;2.30;;
5787;SDS011;2920;48.158;12.254;2022-07-03T07:06:27;2.60;;;2.10;;
5787;SDS011;2920;48.158;12.254;2022-07-03T07:08:53;4.18;;;2.30;;
5787;SDS011;2920;48.158;12.254;2022-07-03T07:11:18;2.80;;;2.10;;
5787;SDS011;2920;48.158;12.254;2022-07-03T07:13:43;2.35;;;2.15;;
5787;SDS011;2920;48.158;12.254;2022-07-03T07:16:09;3.00;;;2.13;;
5787;SDS011;2920;48.158;12.254;2022-07-03T07:18:34;2.20;;;2.00;;
5787;SDS011;2920;48.158;12.254;2022-07-03T07:21:00;2.30;;;2.08;;
5787;SDS011;2920;48.158;12.254;2022-07-03T07:23:25;2.85;;;2.20;;
5787;SDS011;2920;48.158;12.254;2022-07-03T07:25:51;2.92;;;2.17;;
5787;SDS011;2920;48.158;12.254;2022-07-03T07:28:16;2.53;;;2.20;;
5787;SDS011;2920;48.158;12.254;2022-07-03T07:30:41;2.20;;;2.00;;
5787;SDS011;2920;48.158;12.254;2022-07-03T07:33:07;2.83;;;2.10;;
5787;SDS011;2920;48.158;12.254;2022-07-03T07:35:33;2.20;;;2.00;;
5787;SDS011;2920;48.158;12.254;2022-07-03T07:37:58;2.40;;;2.20;;
5787;SDS011;2920;48.158;12.254;2022-07-03T07:40:23;4.32;;;2.30;;
5787;SDS011;2920;48.158;12.254;2022-07-03T07:42:49;2.15;;;1.95;;
5787;SDS011;2920;48.158;12.254;2022-07-03T07:45:15;2.45;;;1.90;;
5787;SDS011;2920;48.158;12.254;2022-07-03T07:47:40;2.20;;;2.00;;
5787;SDS011;2920;48.158;12.254;2022-07-03T07:50:06;2.55;;;2.10;;
5787;SDS011;2920;48.158;12.254;2022-07-03T07:52:32;2.15;;;1.90;;
5787;SDS011;2920;48.158;12.254;2022-07-03T07:54:57;3.00;;;2.25;;
5787;SDS011;2920;48.158;12.254;2022-07-03T07:57:22;2.92;;;2.30;;
5787;SDS011;2920;48.158;12.254;2022-07-03T07:59:48;2.40;;;2.00;;
5787;SDS011;2920;48.158;12.254;2022-07-03T08:02:13;2.28;;;2.08;;
5787;SDS011;2920;48.158;12.254;2022-07-03T08:04:57;1.92;;;1.73;;
5787;SDS011;2920;48.158;12.254;2022-07-03T08:07:41;2.30;;;2.10;;
5787;SDS011;2920;48.158;12.254;2022-07-03T08:10:06;3.60;;;2.13;;
5787;SDS011;2920;48.158;12.254;2022-07-03T08:12:32;1.85;;;1.70;;
5787;SDS011;2920;48.158;12.254;2022-07-03T08:14:57;3.80;;;1.98;;
5787;SDS011;2920;48.158;12.254;2022-07-03T08:17:22;2.35;;;1.83;;
5787;SDS011;2920;48.158;12.254;2022-07-03T08:19:48;1.95;;;1.85;;
5787;SDS011;2920;48.158;12.254;2022-07-03T08:22:13;3.13;;;1.88;;
5787;SDS011;2920;48.158;12.254;2022-07-03T08:24:38;3.45;;;2.03;;
5787;SDS011;2920;48.158;12.254;2022-07-03T08:27:04;2.15;;;1.95;;
5787;SDS011;2920;48.158;12.254;2022-07-03T08:29:30;2.33;;;1.90;;
5787;SDS011;2920;48.158;12.254;2022-07-03T08:31:55;2.13;;;1.65;;
5787;SDS011;2920;48.158;12.254;2022-07-03T08:34:21;2.53;;;1.83;;
5787;SDS011;2920;48.158;12.254;2022-07-03T08:36:47;2.00;;;1.80;;
5787;SDS011;2920;48.158;12.254;2022-07-03T08:39:12;1.90;;;1.80;;
5787;SDS011;2920;48.158;12.254;2022-07-03T08:41:39;2.42;;;1.70;;
5787;SDS011;2920;48.158;12.254;2022-07-03T08:44:05;2.00;;;1.80;;
5787;SDS011;2920;48.158;12.254;2022-07-03T08:46:31;2.33;;;1.90;;
5787;SDS011;2920;48.158;12.254;2022-07-03T08:48:57;4.28;;;2.20;;
5787;SDS011;2920;48.158;12.254;2022-07-03T08:51:24;2.10;;;1.90;;
5787;SDS011;2920;48.158;12.254;2022-07-03T08:53:49;3.08;;;1.70;;
5787;SDS011;2920;48.158;12.254;2022-07-03T08:56:19;2.33;;;2.13;;
5787;SDS011;2920;48.158;12.254;2022-07-03T08:58:45;1.67;;;1.58;;
5787;SDS011;2920;48.158;12.254;2022-07-03T09:01:12;2.20;;;2.00;;
5787;SDS011;2920;48.158;12.254;2022-07-03T09:03:40;2.53;;;2.00;;
5787;SDS011;2920;48.158;12.254;2022-07-03T09:06:07;2.30;;;2.10;;
5787;SDS011;2920;48.158;12.254;2022-07-03T09:08:32;1.88;;;1.77;;
5787;SDS011;2920;48.158;12.254;2022-07-03T09:10:59;2.20;;;2.00;;
5787;SDS011;2920;48.158;12.254;2022-07-03T09:13:24;2.55;;;1.80;;
5787;SDS011;2920;48.158;12.254;2022-07-03T09:15:49;3.85;;;1.80;;
5787;SDS011;2920;48.158;12.254;2022-07-03T09:18:15;4.70;;;2.07;;
5787;SDS011;2920;48.158;12.254;2022-07-03T09:20:40;2.20;;;2.00;;
5787;SDS011;2920;48.158;12.254;2022-07-03T09:23:14;2.40;;;2.17;;
5787;SDS011;2920;48.158;12.254;2022-07-03T09:25:50;2.00;;;1.80;;
5787;SDS011;2920;48.158;12.254;2022-07-03T09:28:19;2.42;;;2.10;;
5787;SDS011;2920;48.158;12.254;2022-07-03T09:34:14;2.25;;;2.00;;
5787;SDS011;2920;48.158;12.254;2022-07-03T09:39:21;1.63;;;1.52;;
5787;SDS011;2920;48.158;12.254;2022-07-03T09:41:54;2.00;;;1.90;;
5787;SDS011;2920;48.158;12.254;2022-07-03T09:44:37;2.00;;;1.80;;
5787;SDS011;2920;48.158;12.254;2022-07-03T09:47:06;3.03;;;2.15;;
5787;SDS011;2920;48.158;12.254;2022-07-03T09:52:29;1.90;;;1.80;;
5787;SDS011;2920;48.158;12.254;2022-07-03T09:54:55;2.17;;;1.98;;
5787;SDS011;2920;48.158;12.254;2022-07-03T09:57:22;1.90;;;1.80;;
5787;SDS011;2920;48.158;12.254;2022-07-03T09:59:48;2.83;;;1.70;;
5787;SDS011;2920;48.158;12.254;2022-07-03T10:02:14;2.75;;;2.10;;
5787;SDS011;2920;48.158;12.254;2022-07-03T10:04:39;2.03;;;1.73;;
5787;SDS011;2920;48.158;12.254;2022-07-03T10:07:04;2.20;;;2.00;;
5787;SDS011;2920;48.158;12.254;2022-07-03T10:09:33;2.10;;;1.65;;
5787;SDS011;2920;48.158;12.254;2022-07-03T10:12:00;2.10;;;1.90;;
5787;SDS011;2920;48.158;12.254;2022-07-03T10:14:28;3.23;;;2.10;;
5787;SDS011;2920;48.158;12.254;2022-07-03T10:16:55;2.10;;;1.90;;
5787;SDS011;2920;48.158;12.254;2022-07-03T10:19:26;2.20;;;2.00;;
5787;SDS011;2920;48.158;12.254;2022-07-03T10:22:02;2.17;;;1.85;;
5787;SDS011;2920;48.158;12.254;2022-07-03T10:24:34;2.15;;;2.00;;
5787;SDS011;2920;48.158;12.254;2022-07-03T10:27:00;2.20;;;1.95;;
5787;SDS011;2920;48.158;12.254;2022-07-03T10:29:26;1.80;;;1.70;;
5787;SDS011;2920;48.158;12.254;2022-07-03T10:31:52;2.60;;;2.00;;
5787;SDS011;2920;48.158;12.254;2022-07-03T10:34:19;1.83;;;1.70;;
5787;SDS011;2920;48.158;12.254;2022-07-03T10:36:51;4.65;;;1.90;;
5787;SDS011;2920;48.158;12.254;2022-07-03T10:39:20;2.63;;;1.85;;
5787;SDS011;2920;48.158;12.254;2022-07-03T10:41:53;1.73;;;1.63;;
5787;SDS011;2920;48.158;12.254;2022-07-03T10:47:37;1.70;;;1.60;;
5787;SDS011;2920;48.158;12.254;2022-07-03T10:50:17;2.58;;;1.70;;
5787;SDS011;2920;48.158;12.254;2022-07-03T10:52:44;1.60;;;1.50;;
5787;SDS011;2920;48.158;12.254;2022-07-03T10:55:11;2.00;;;1.80;;
5787;SDS011;2920;48.158;12.254;2022-07-03T10:57:37;2.15;;;1.83;;
5787;SDS011;2920;48.158;12.254;2022-07-03T11:00:04;1.70;;;1.60;;
5787;SDS011;2920;48.158;12.254;2022-07-03T11:02:44;1.58;;;1.48;;
5787;SDS011;2920;48.158;12.254;2022-07-03T11:07:44;2.72;;;1.90;;
5787;SDS011;2920;48.158;12.254;2022-07-03T11:10:29;2.17;;;1.60;;
5787;SDS011;2920;48.158;12.254;2022-07-03T11:20:30;2.20;;;1.73;;
5787;SDS011;2920;48.158;12.254;2022-07-03T11:26:01;2.75;;;1.90;;
5787;SDS011;2920;48.158;12.254;2022-07-03T11:28:47;1.50;;;1.40;;
5787;SDS011;2920;48.158;12.254;2022-07-03T11:38:48;1.77;;;1.50;;
5787;SDS011;2920;48.158;12.254;2022-07-03T11:41:21;1.50;;;1.40;;
5787;SDS011;2920;48.158;12.254;2022-07-03T11:46:16;1.70;;;1.60;;
5787;SDS011;2920;48.158;12.254;2022-07-03T11:48:45;1.73;;;1.63;;
5787;SDS011;2920;48.158;12.254;2022-07-03T11:51:10;1.97;;;1.80;;
5787;SDS011;2920;48.158;12.254;2022-07-03T11:53:36;1.63;;;1.52;;
5787;SDS011;2920;48.158;12.254;2022-07-03T11:56:06;1.95;;;1.77;;
5787;SDS011;2920;48.158;12.254;2022-07-03T12:01:11;2.53;;;1.73;;
5787;SDS011;2920;48.158;12.254;2022-07-03T12:04:11;3.47;;;1.73;;
5787;SDS011;2920;48.158;12.254;2022-07-03T12:06:41;2.45;;;1.50;;
5787;SDS011;2920;48.158;12.254;2022-07-03T12:09:17;1.60;;;1.50;;
5787;SDS011;2920;48.158;12.254;2022-07-03T12:15:02;1.70;;;1.60;;
5787;SDS011;2920;48.158;12.254;2022-07-03T12:17:16;2.22;;;1.77;;
5787;SDS011;2920;48.158;12.254;2022-07-03T12:19:46;2.15;;;1.85;;
5787;SDS011;2920;48.158;12.254;2022-07-03T12:22:21;1.70;;;1.50;;
5787;SDS011;2920;48.158;12.254;2022-07-03T12:25:08;1.65;;;1.55;;
5787;SDS011;2920;48.158;12.254;2022-07-03T12:27:35;1.77;;;1.67;;
5787;SDS011;2920;48.158;12.254;2022-07-03T12:32:28;1.60;;;1.50;;
5787;SDS011;2920;48.158;12.254;2022-07-03T12:34:53;1.70;;;1.60;;
5787;SDS011;2920;48.158;12.254;2022-07-03T12:37:31;2.00;;;1.80;;
5787;SDS011;2920;48.158;12.254;2022-07-03T12:39:57;1.65;;;1.55;;
5787;SDS011;2920;48.158;12.254;2022-07-03T12:42:23;1.70;;;1.60;;
5787;SDS011;2920;48.158;12.254;2022-07-03T12:45:02;1.60;;;1.50;;
5787;SDS011;2920;48.158;12.254;2022-07-03T12:47:29;5.88;;;1.80;;
5787;SDS011;2920;48.158;12.254;2022-07-03T12:49:55;1.58;;;1.48;;
5787;SDS011;2920;48.158;12.254;2022-07-03T12:52:26;2.60;;;1.40;;
5787;SDS011;2920;48.158;12.254;2022-07-03T12:54:52;1.75;;;1.63;;
5787;SDS011;2920;48.158;12.254;2022-07-03T12:57:17;1.55;;;1.45;;
5787;SDS011;2920;48.158;12.254;2022-07-03T13:02:28;2.95;;;1.67;;
5787;SDS011;2920;48.158;12.254;2022-07-03T13:04:53;1.58;;;1.48;;
5787;SDS011;2920;48.158;12.254;2022-07-03T13:07:18;5.30;;;1.70;;
5787;SDS011;2920;48.158;12.254;2022-07-03T13:09:51;1.50;;;1.40;;
5787;SDS011;2920;48.158;12.254;2022-07-03T13:12:21;1.58;;;1.48;;
5787;SDS011;2920;48.158;12.254;2022-07-03T13:15:24;1.70;;;1.60;;
5787;SDS011;2920;48.158;12.254;2022-07-03T13:20:24;1.85;;;1.63;;
5787;SDS011;2920;48.158;12.254;2022-07-03T13:22:51;1.50;;;1.40;;
5787;SDS011;2920;48.158;12.254;2022-07-03T13:25:17;1.88;;;1.67;;
5787;SDS011;2920;48.158;12.254;2022-07-03T13:27:43;1.80;;;1.60;;
5787;SDS011;2920;48.158;12.254;2022-07-03T13:30:10;1.67;;;1.52;;
5787;SDS011;2920;48.158;12.254;2022-07-03T13:32:38;1.85;;;1.70;;
5787;SDS011;2920;48.158;12.254;2022-07-03T13:35:04;1.73;;;1.50;;
5787;SDS011;2920;48.158;12.254;2022-07-03T13:37:30;1.60;;;1.50;;
5787;SDS011;2920;48.158;12.254;2022-07-03T13:39:56;1.50;;;1.40;;
5787;SDS011;2920;48.158;12.254;2022-07-03T13:42:21;1.70;;;1.60;;
5787;SDS011;2920;48.158;12.254;2022-07-03T13:44:46;1.50;;;1.40;;
5787;SDS011;2920;48.158;12.254;2022-07-03T13:47:12;2.42;;;1.85;;
5787;SDS011;2920;48.158;12.254;2022-07-03T13:49:37;2.20;;;1.60;;
5787;SDS011;2920;48.158;12.254;2022-07-03T13:52:03;1.43;;;1.33;;
5787;SDS011;2920;48.158;12.254;2022-07-03T13:54:28;1.40;;;1.30;;
5787;SDS011;2920;48.158;12.254;2022-07-03T13:56:54;1.40;;;1.30;;
5787;SDS011;2920;48.158;12.254;2022-07-03T13:59:19;1.40;;;1.30;;
5787;SDS011;2920;48.158;12.254;2022-07-03T14:01:46;2.00;;;1.50;;
5787;SDS011;2920;48.158;12.254;2022-07-03T14:04:11;1.92;;;1.60;;
5787;SDS011;2920;48.158;12.254;2022-07-03T14:06:37;1.60;;;1.50;;
5787;SDS011;2920;48.158;12.254;2022-07-03T14:09:02;1.33;;;1.25;;
5787;SDS011;2920;48.158;12.254;2022-07-03T14:11:28;1.83;;;1.60;;
5787;SDS011;2920;48.158;12.254;2022-07-03T14:13:54;1.50;;;1.40;;
5787;SDS011;2920;48.158;12.254;2022-07-03T14:16:19;1.63;;;1.52;;
5787;SDS011;2920;48.158;12.254;2022-07-03T14:18:45;1.50;;;1.40;;
5787;SDS011;2920;48.158;12.254;2022-07-03T14:21:10;1.52;;;1.42;;
5787;SDS011;2920;48.158;12.254;2022-07-03T14:23:36;2.38;;;1.50;;
5787;SDS011;2920;48.158;12.254;2022-07-03T14:26:01;1.50;;;1.40;;
5787;SDS011;2920;48.158;12.254;2022-07-03T14:28:26;2.20;;;1.53;;
5787;SDS011;2920;48.158;12.254;2022-07-03T14:31:10;2.05;;;1.40;;
5787;SDS011;2920;48.158;12.254;2022-07-03T14:33:48;1.52;;;1.42;;
5787;SDS011;2920;48.158;12.254;2022-07-03T14:36:14;1.27;;;1.15;;
5787;SDS011;2920;48.158;12.254;2022-07-03T14:38:39;1.50;;;1.40;;
5787;SDS011;2920;48.158;12.254;2022-07-03T14:41:04;1.50;;;1.40;;
5787;SDS011;2920;48.158;12.254;2022-07-03T14:43:30;3.47;;;1.50;;
5787;SDS011;2920;48.158;12.254;2022-07-03T14:45:55;1.40;;;1.30;;
5787;SDS011;2920;48.158;12.254;2022-07-03T14:48:20;1.63;;;1.30;;
5787;SDS011;2920;48.158;12.254;2022-07-03T14:50:46;1.53;;;1.43;;
5787;SDS011;2920;48.158;12.254;2022-07-03T14:53:11;1.50;;;1.40;;
5787;SDS011;2920;48.158;12.254;2022-07-03T14:55:38;1.50;;;1.40;;
5787;SDS011;2920;48.158;12.254;2022-07-03T14:58:21;1.80;;;1.35;;
5787;SDS011;2920;48.158;12.254;2022-07-03T15:00:51;2.30;;;1.33;;
5787;SDS011;2920;48.158;12.254;2022-07-03T15:03:24;1.45;;;1.35;;
5787;SDS011;2920;48.158;12.254;2022-07-03T15:06:01;1.23;;;1.13;;
5787;SDS011;2920;48.158;12.254;2022-07-03T15:11:06;1.40;;;1.30;;
5787;SDS011;2920;48.158;12.254;2022-07-03T15:13:32;1.40;;;1.30;;
5787;SDS011;2920;48.158;12.254;2022-07-03T15:15:59;1.55;;;1.35;;
5787;SDS011;2920;48.158;12.254;2022-07-03T15:18:24;1.40;;;1.30;;
5787;SDS011;2920;48.158;12.254;2022-07-03T15:20:50;1.15;;;1.15;;
5787;SDS011;2920;48.158;12.254;2022-07-03T15:23:17;1.33;;;1.20;;
5787;SDS011;2920;48.158;12.254;2022-07-03T15:25:43;1.35;;;1.25;;
5787;SDS011;2920;48.158;12.254;2022-07-03T15:28:10;2.30;;;1.60;;
5787;SDS011;2920;48.158;12.254;2022-07-03T15:30:36;1.25;;;1.25;;
5787;SDS011;2920;48.158;12.254;2022-07-03T15:33:02;2.15;;;1.38;;
5787;SDS011;2920;48.158;12.254;2022-07-03T15:35:27;1.20;;;1.20;;
5787;SDS011;2920;48.158;12.254;2022-07-03T15:40:23;1.60;;;1.30;;
5787;SDS011;2920;48.158;12.254;2022-07-03T15:43:06;1.33;;;1.20;;
5787;SDS011;2920;48.158;12.254;2022-07-03T15:48:28;1.50;;;1.40;;
5787;SDS011;2920;48.158;12.254;2022-07-03T15:53:37;1.30;;;1.20;;
5787;SDS011;2920;48.158;12.254;2022-07-03T15:56:04;2.35;;;1.23;;
5787;SDS011;2920;48.158;12.254;2022-07-03T15:58:32;1.58;;;1.20;;
5787;SDS011;2920;48.158;12.254;2022-07-03T16:01:04;1.10;;;1.10;;
5787;SDS011;2920;48.158;12.254;2022-07-03T16:04:04;1.05;;;1.05;;
5787;SDS011;2920;48.158;12.254;2022-07-03T16:06:32;1.15;;;1.10;;
5787;SDS011;2920;48.158;12.254;2022-07-03T16:09:02;1.20;;;1.10;;
5787;SDS011;2920;48.158;12.254;2022-07-03T16:11:28;1.10;;;1.10;;
5787;SDS011;2920;48.158;12.254;2022-07-03T16:13:54;1.10;;;1.10;;
5787;SDS011;2920;48.158;12.254;2022-07-03T16:16:23;1.75;;;1.38;;
5787;SDS011;2920;48.158;12.254;2022-07-03T16:18:49;7.13;;;1.20;;
5787;SDS011;2920;48.158;12.254;2022-07-03T16:21:16;2.45;;;1.58;;
5787;SDS011;2920;48.158;12.254;2022-07-03T16:23:43;1.42;;;1.17;;
5787;SDS011;2920;48.158;12.254;2022-07-03T16:26:09;2.00;;;1.40;;
5787;SDS011;2920;48.158;12.254;2022-07-03T16:28:35;2.95;;;1.30;;
5787;SDS011;2920;48.158;12.254;2022-07-03T16:31:00;1.13;;;1.05;;
5787;SDS011;2920;48.158;12.254;2022-07-03T16:33:27;1.15;;;1.13;;
5787;SDS011;2920;48.158;12.254;2022-07-03T16:35:53;1.30;;;1.20;;
5787;SDS011;2920;48.158;12.254;2022-07-03T16:38:40;1.45;;;1.25;;
5787;SDS011;2920;48.158;12.254;2022-07-03T16:41:10;1.40;;;1.30;;
5787;SDS011;2920;48.158;12.254;2022-07-03T16:43:38;2.05;;;1.30;;